Time;durP1;ratioP1;P1;durP2;ratioP2;P2;SDS_P1;SDS_P2;PMS_P1;PMS_P2;Temp;Humidity;BMP_temperature;BMP_pressure;BME280_temperature;BME280_humidity;BME280_pressure;Samples;Min_cycle;Max_cycle;Signal;HPM_P1;HPM_P2
2022/10/31 00:01:24;;;;;;;10.97;6.33;;;;;;;;;;5053445;28;20452;-64
2022/10/31 00:03:51;;;;;;;11.00;6.90;;;;;;;;;;5052985;28;20958;-65
2022/10/31 00:06:18;;;;;;;10.80;5.73;;;;;;;;;;5053741;28;20438;-64
2022/10/31 00:08:47;;;;;;;14.37;7.13;;;;;;;;;;5053221;28;20507;-64
2022/10/31 00:11:14;;;;;;;12.37;6.80;;;;;;;;;;5053077;28;20450;-64
2022/10/31 00:13:41;;;;;;;8.77;6.40;;;;;;;;;;5052902;28;20450;-65
2022/10/31 00:16:14;;;;;;;11.87;7.50;;;;;;;;;;5052769;28;20958;-64
2022/10/31 00:18:41;;;;;;;12.03;7.10;;;;;;;;;;5053249;28;20454;-65
2022/10/31 00:21:08;;;;;;;10.90;7.00;;;;;;;;;;5052967;28;20447;-64
2022/10/31 00:23:35;;;;;;;10.90;7.93;;;;;;;;;;5053317;28;20454;-65
2022/10/31 00:26:04;;;;;;;10.10;7.40;;;;;;;;;;5054789;28;20470;-64
2022/10/31 00:28:32;;;;;;;8.90;7.50;;;;;;;;;;5057123;28;20536;-65
2022/10/31 00:31:00;;;;;;;17.47;9.07;;;;;;;;;;5057118;28;20469;-65
2022/10/31 00:33:27;;;;;;;12.80;7.50;;;;;;;;;;5057134;28;20500;-63
2022/10/31 00:35:54;;;;;;;12.40;8.10;;;;;;;;;;5056586;28;20489;-64
2022/10/31 00:38:21;;;;;;;13.73;9.10;;;;;;;;;;5056650;28;20453;-65
2022/10/31 00:40:49;;;;;;;17.43;9.70;;;;;;;;;;5056668;28;20453;-64
2022/10/31 00:43:17;;;;;;;16.50;9.63;;;;;;;;;;5056676;28;20453;-64
2022/10/31 00:45:44;;;;;;;15.23;9.10;;;;;;;;;;5056743;28;20830;-63
2022/10/31 00:48:11;;;;;;;14.93;8.97;;;;;;;;;;5056568;28;20446;-64
2022/10/31 00:50:39;;;;;;;10.63;8.40;;;;;;;;;;5056510;28;20442;-63
2022/10/31 00:53:06;;;;;;;23.77;10.17;;;;;;;;;;5056899;28;20446;-64
2022/10/31 00:55:33;;;;;;;20.13;10.40;;;;;;;;;;5056555;28;20485;-64
2022/10/31 00:58:00;;;;;;;17.53;9.97;;;;;;;;;;5056360;28;20450;-64
2022/10/31 01:00:28;;;;;;;19.23;11.10;;;;;;;;;;5056724;28;20472;-64
2022/10/31 01:02:55;;;;;;;18.50;11.03;;;;;;;;;;5056521;28;20462;-64
2022/10/31 01:05:23;;;;;;;19.20;12.10;;;;;;;;;;5056472;28;20462;-64
2022/10/31 01:07:50;;;;;;;17.30;11.50;;;;;;;;;;5057005;28;20473;-65
2022/10/31 01:10:17;;;;;;;19.10;12.40;;;;;;;;;;5056113;28;20826;-64
2022/10/31 01:12:46;;;;;;;22.13;14.00;;;;;;;;;;5055831;28;20938;-64
2022/10/31 01:15:14;;;;;;;24.03;14.30;;;;;;;;;;5055983;28;20481;-64
2022/10/31 01:17:42;;;;;;;19.70;13.80;;;;;;;;;;5056274;28;20468;-65
2022/10/31 01:20:10;;;;;;;20.37;14.40;;;;;;;;;;5056156;28;20456;-64
2022/10/31 01:22:37;;;;;;;23.23;16.23;;;;;;;;;;5056154;28;20448;-64
2022/10/31 01:25:04;;;;;;;24.80;15.23;;;;;;;;;;5055931;28;20481;-64
2022/10/31 01:27:32;;;;;;;27.73;17.27;;;;;;;;;;5056401;28;20442;-64
2022/10/31 01:29:59;;;;;;;26.03;16.77;;;;;;;;;;5056158;28;20800;-65
2022/10/31 01:32:28;;;;;;;24.00;17.70;;;;;;;;;;5056560;28;20450;-65
2022/10/31 01:34:57;;;;;;;31.40;18.30;;;;;;;;;;5055845;28;20557;-65
2022/10/31 01:37:24;;;;;;;30.67;20.23;;;;;;;;;;5054959;28;20459;-65
2022/10/31 01:39:51;;;;;;;28.17;18.27;;;;;;;;;;5055545;28;20814;-65
2022/10/31 01:42:19;;;;;;;29.27;20.93;;;;;;;;;;5055363;28;20816;-65
2022/10/31 01:44:52;;;;;;;33.50;20.70;;;;;;;;;;5055242;28;20524;-65
2022/10/31 01:47:21;;;;;;;29.13;20.10;;;;;;;;;;5055547;28;20508;-65
2022/10/31 01:49:50;;;;;;;28.67;20.63;;;;;;;;;;5055524;28;20450;-65
2022/10/31 01:52:21;;;;;;;36.33;22.63;;;;;;;;;;5055617;28;20830;-65
2022/10/31 01:54:50;;;;;;;26.73;22.20;;;;;;;;;;5055190;28;20470;-64
2022/10/31 01:57:20;;;;;;;35.10;21.27;;;;;;;;;;5055322;28;20472;-64
2022/10/31 01:59:50;;;;;;;34.60;20.97;;;;;;;;;;5055599;28;20454;-65
2022/10/31 02:02:17;;;;;;;30.33;21.70;;;;;;;;;;5055255;28;20831;-64
2022/10/31 02:04:45;;;;;;;33.77;21.37;;;;;;;;;;5055463;28;20489;-64
2022/10/31 02:07:13;;;;;;;36.97;22.87;;;;;;;;;;5055489;28;20446;-64
2022/10/31 02:09:42;;;;;;;26.17;21.00;;;;;;;;;;5054972;28;20449;-64
2022/10/31 02:12:11;;;;;;;34.80;21.47;;;;;;;;;;5055075;28;20446;-65
2022/10/31 02:14:39;;;;;;;33.20;21.67;;;;;;;;;;5055410;28;20467;-65
2022/10/31 02:17:06;;;;;;;30.80;21.67;;;;;;;;;;5055314;28;20489;-64
2022/10/31 02:19:36;;;;;;;35.83;21.30;;;;;;;;;;5054879;28;20450;-64
2022/10/31 02:22:05;;;;;;;31.70;22.40;;;;;;;;;;5055571;28;20455;-64
2022/10/31 02:24:42;;;;;;;32.73;21.53;;;;;;;;;;5054730;28;20479;-65
2022/10/31 02:27:23;;;;;;;34.57;22.50;;;;;;;;;;5054654;28;20442;-65
2022/10/31 02:29:55;;;;;;;34.40;21.53;;;;;;;;;;5054187;28;20445;-65
2022/10/31 02:32:27;;;;;;;33.63;22.70;;;;;;;;;;5054626;28;20422;-65
2022/10/31 02:34:56;;;;;;;35.20;22.70;;;;;;;;;;5054528;28;20474;-65
2022/10/31 02:37:27;;;;;;;40.37;23.60;;;;;;;;;;5054347;28;20859;-65
2022/10/31 02:39:56;;;;;;;38.53;23.70;;;;;;;;;;5054452;28;20545;-65
2022/10/31 02:42:29;;;;;;;29.70;20.17;;;;;;;;;;5054413;28;20446;-65
2022/10/31 02:45:01;;;;;;;34.93;22.83;;;;;;;;;;5054051;28;20471;-64
2022/10/31 02:47:32;;;;;;;36.37;21.90;;;;;;;;;;5054463;28;20434;-65
2022/10/31 02:50:02;;;;;;;35.03;22.67;;;;;;;;;;5054089;28;20846;-65
2022/10/31 02:52:29;;;;;;;34.27;22.13;;;;;;;;;;5053901;28;20452;-65
2022/10/31 02:54:57;;;;;;;44.40;22.50;;;;;;;;;;5053999;28;20471;-65
2022/10/31 02:57:25;;;;;;;33.77;23.37;;;;;;;;;;5053898;28;20487;-65
2022/10/31 02:59:55;;;;;;;35.17;23.50;;;;;;;;;;5053993;28;20453;-65
2022/10/31 03:02:33;;;;;;;41.27;23.87;;;;;;;;;;5054001;28;20445;-66
2022/10/31 03:05:08;;;;;;;36.10;23.10;;;;;;;;;;5053877;28;20838;-65
2022/10/31 03:07:42;;;;;;;36.83;23.43;;;;;;;;;;5053891;28;20428;-65
2022/10/31 03:10:14;;;;;;;36.13;24.17;;;;;;;;;;5053823;28;20500;-65
2022/10/31 03:12:44;;;;;;;37.17;24.03;;;;;;;;;;5053853;28;20442;-64
2022/10/31 03:15:14;;;;;;;35.60;22.47;;;;;;;;;;5054893;28;20460;-65
2022/10/31 03:17:47;;;;;;;34.73;22.67;;;;;;;;;;5054799;28;20445;-64
2022/10/31 03:20:17;;;;;;;30.30;22.33;;;;;;;;;;5053877;28;20421;-63
2022/10/31 03:22:45;;;;;;;30.70;23.00;;;;;;;;;;5053715;28;20448;-65
2022/10/31 03:25:13;;;;;;;35.70;23.33;;;;;;;;;;5053281;28;20470;-65
2022/10/31 03:27:43;;;;;;;34.90;22.73;;;;;;;;;;5053545;28;20441;-65
2022/10/31 03:30:10;;;;;;;34.77;21.97;;;;;;;;;;5053217;28;20443;-65
2022/10/31 03:32:40;;;;;;;39.87;23.73;;;;;;;;;;5053734;28;20445;-65
2022/10/31 03:35:08;;;;;;;37.47;23.13;;;;;;;;;;5053190;28;20807;-65
2022/10/31 03:37:37;;;;;;;39.60;24.10;;;;;;;;;;5052898;28;20480;-65
2022/10/31 03:40:05;;;;;;;34.10;22.90;;;;;;;;;;5053066;28;20450;-65
2022/10/31 03:42:34;;;;;;;31.20;21.47;;;;;;;;;;5053079;28;20789;-65
2022/10/31 03:45:03;;;;;;;39.67;23.10;;;;;;;;;;5052854;28;21002;-65
2022/10/31 03:47:30;;;;;;;40.07;24.70;;;;;;;;;;5053370;28;20440;-65
2022/10/31 03:49:58;;;;;;;42.63;24.47;;;;;;;;;;5053267;28;20452;-64
2022/10/31 03:52:27;;;;;;;42.37;24.40;;;;;;;;;;5053225;28;20456;-65
2022/10/31 03:54:58;;;;;;;38.73;24.40;;;;;;;;;;5053110;28;20467;-65
2022/10/31 03:57:26;;;;;;;35.90;24.70;;;;;;;;;;5053311;28;20461;-65
2022/10/31 03:59:57;;;;;;;36.83;24.50;;;;;;;;;;5052867;28;20445;-66
2022/10/31 04:02:27;;;;;;;41.20;23.27;;;;;;;;;;5053147;28;20444;-65
2022/10/31 04:04:54;;;;;;;39.40;22.97;;;;;;;;;;5055447;28;20462;-65
2022/10/31 04:10:30;;;;;;;43.83;23.97;;;;;;;;;;5134620;27;20555;-63
2022/10/31 04:12:59;;;;;;;36.47;23.13;;;;;;;;;;5134505;27;20474;-65
2022/10/31 04:15:27;;;;;;;38.37;24.47;;;;;;;;;;5134449;27;20473;-63
2022/10/31 04:17:56;;;;;;;39.30;23.77;;;;;;;;;;5134798;27;20450;-63
2022/10/31 04:20:31;;;;;;;33.80;23.30;;;;;;;;;;5131668;27;20437;-65
2022/10/31 04:25:38;;;;;;;38.77;24.13;;;;;;;;;;5109879;28;20531;-66
2022/10/31 04:28:05;;;;;;;37.70;22.83;;;;;;;;;;5111093;28;20446;-65
2022/10/31 04:30:32;;;;;;;40.83;25.70;;;;;;;;;;5110998;28;20449;-65
2022/10/31 04:32:59;;;;;;;40.13;25.73;;;;;;;;;;5111316;28;20443;-65
2022/10/31 04:35:26;;;;;;;43.23;26.60;;;;;;;;;;5091680;28;20443;-65
2022/10/31 04:37:53;;;;;;;38.93;24.40;;;;;;;;;;5091389;28;20453;-65
2022/10/31 04:40:20;;;;;;;36.70;24.93;;;;;;;;;;5091070;28;20976;-66
2022/10/31 04:42:49;;;;;;;40.60;24.20;;;;;;;;;;5093184;28;20452;-65
2022/10/31 04:45:16;;;;;;;39.10;23.20;;;;;;;;;;5094680;28;20471;-65
2022/10/31 04:47:43;;;;;;;48.37;22.23;;;;;;;;;;5091948;28;20455;-66
2022/10/31 04:50:10;;;;;;;47.03;23.97;;;;;;;;;;5089864;28;20474;-65
2022/10/31 04:52:40;;;;;;;40.37;23.00;;;;;;;;;;5090036;28;20444;-66
2022/10/31 04:55:07;;;;;;;36.27;24.20;;;;;;;;;;5089626;28;21001;-66
2022/10/31 04:57:41;;;;;;;42.47;24.03;;;;;;;;;;5089758;28;20457;-65
2022/10/31 05:00:10;;;;;;;41.03;23.97;;;;;;;;;;5090287;28;20918;-66
2022/10/31 05:02:44;;;;;;;38.00;23.40;;;;;;;;;;5090103;28;20471;-65
2022/10/31 05:05:11;;;;;;;40.80;23.40;;;;;;;;;;5089898;28;20470;-65
2022/10/31 05:07:39;;;;;;;37.83;23.33;;;;;;;;;;5089967;28;20445;-65
2022/10/31 05:10:07;;;;;;;38.40;21.37;;;;;;;;;;5090000;28;20479;-66
2022/10/31 05:12:34;;;;;;;40.07;23.87;;;;;;;;;;5089777;28;20859;-66
2022/10/31 05:15:01;;;;;;;45.93;24.10;;;;;;;;;;5089231;28;20972;-66
2022/10/31 05:17:29;;;;;;;42.50;25.27;;;;;;;;;;5089118;28;20947;-66
2022/10/31 05:19:56;;;;;;;40.73;24.67;;;;;;;;;;5086187;28;20971;-65
2022/10/31 05:22:23;;;;;;;36.30;25.30;;;;;;;;;;5075687;28;20447;-65
2022/10/31 05:24:50;;;;;;;40.93;26.20;;;;;;;;;;5075972;28;20480;-65
2022/10/31 05:27:17;;;;;;;46.27;24.30;;;;;;;;;;5076646;28;20450;-65
2022/10/31 05:29:44;;;;;;;39.80;24.47;;;;;;;;;;5075816;28;20474;-64
2022/10/31 05:32:11;;;;;;;49.30;24.20;;;;;;;;;;5075920;28;20785;-65
2022/10/31 05:34:40;;;;;;;41.50;23.27;;;;;;;;;;5075236;28;20471;-65
2022/10/31 05:37:07;;;;;;;40.97;23.47;;;;;;;;;;5075333;28;20447;-65
2022/10/31 05:39:34;;;;;;;36.47;22.87;;;;;;;;;;5075462;28;20443;-65
2022/10/31 05:42:01;;;;;;;45.87;24.60;;;;;;;;;;5075315;28;20449;-65
2022/10/31 05:44:28;;;;;;;43.47;24.33;;;;;;;;;;5075118;28;20471;-65
2022/10/31 05:46:55;;;;;;;44.70;23.97;;;;;;;;;;5074938;28;20906;-65
2022/10/31 05:49:22;;;;;;;41.67;25.27;;;;;;;;;;5074866;28;20480;-65
2022/10/31 05:51:50;;;;;;;47.47;25.67;;;;;;;;;;5075310;28;20479;-65
2022/10/31 05:54:18;;;;;;;42.30;23.57;;;;;;;;;;5075126;28;20468;-65
2022/10/31 05:56:45;;;;;;;46.63;23.43;;;;;;;;;;5075145;28;20448;-65
2022/10/31 05:59:12;;;;;;;41.70;25.20;;;;;;;;;;5075157;28;20447;-63
2022/10/31 06:01:39;;;;;;;41.70;24.93;;;;;;;;;;5075021;28;20448;-65
2022/10/31 06:04:06;;;;;;;47.40;24.73;;;;;;;;;;5075009;28;20477;-65
2022/10/31 06:06:33;;;;;;;38.80;23.60;;;;;;;;;;5074834;28;20443;-66
2022/10/31 06:09:01;;;;;;;37.20;23.57;;;;;;;;;;5074821;28;20478;-66
2022/10/31 06:11:28;;;;;;;40.63;22.50;;;;;;;;;;5075167;28;20821;-65
2022/10/31 06:13:55;;;;;;;36.63;23.57;;;;;;;;;;5074384;28;20465;-64
2022/10/31 06:16:22;;;;;;;40.73;24.40;;;;;;;;;;5074920;28;20447;-65
2022/10/31 06:18:49;;;;;;;44.60;24.63;;;;;;;;;;5074707;28;20445;-66
2022/10/31 06:21:16;;;;;;;39.00;25.20;;;;;;;;;;5074762;28;20449;-65
2022/10/31 06:23:43;;;;;;;47.13;25.63;;;;;;;;;;5074361;28;20844;-65
2022/10/31 06:26:12;;;;;;;41.77;23.73;;;;;;;;;;5074603;28;20790;-64
2022/10/31 06:28:39;;;;;;;42.90;24.57;;;;;;;;;;5074263;28;20793;-65
2022/10/31 06:31:06;;;;;;;40.10;23.40;;;;;;;;;;5074400;28;20483;-65
2022/10/31 06:33:33;;;;;;;39.83;22.73;;;;;;;;;;5073535;28;20466;-65
2022/10/31 06:36:01;;;;;;;42.63;24.10;;;;;;;;;;5074492;28;20441;-65
2022/10/31 06:38:28;;;;;;;45.50;25.30;;;;;;;;;;5073894;28;20847;-65
2022/10/31 06:40:55;;;;;;;43.67;22.93;;;;;;;;;;5074352;28;20448;-65
2022/10/31 06:43:23;;;;;;;49.27;24.33;;;;;;;;;;5074616;28;20462;-65
2022/10/31 06:45:50;;;;;;;41.77;23.10;;;;;;;;;;5073607;28;20448;-65
2022/10/31 06:48:17;;;;;;;37.50;22.47;;;;;;;;;;5073653;28;20446;-65
2022/10/31 06:50:45;;;;;;;36.97;22.33;;;;;;;;;;5073696;28;20483;-65
2022/10/31 06:53:13;;;;;;;43.43;22.17;;;;;;;;;;5073692;28;20451;-65
2022/10/31 06:55:40;;;;;;;45.13;22.97;;;;;;;;;;5074399;28;20455;-66
2022/10/31 06:58:07;;;;;;;38.17;23.23;;;;;;;;;;5074425;28;20442;-65
2022/10/31 07:00:35;;;;;;;35.87;21.43;;;;;;;;;;5073782;28;20561;-65
2022/10/31 07:03:04;;;;;;;32.80;21.93;;;;;;;;;;5074118;28;20440;-65
2022/10/31 07:05:31;;;;;;;35.10;22.40;;;;;;;;;;5074775;28;20923;-65
2022/10/31 07:07:59;;;;;;;31.57;21.23;;;;;;;;;;5074670;28;20445;-66
2022/10/31 07:10:26;;;;;;;31.83;21.00;;;;;;;;;;5073951;28;20475;-65
2022/10/31 07:12:55;;;;;;;33.20;21.80;;;;;;;;;;5073343;28;20962;-64
2022/10/31 07:15:22;;;;;;;32.90;22.27;;;;;;;;;;5073727;28;20828;-64
2022/10/31 07:17:51;;;;;;;40.47;21.37;;;;;;;;;;5073816;28;20454;-65
2022/10/31 07:20:18;;;;;;;32.93;20.33;;;;;;;;;;5073194;28;20944;-65
2022/10/31 07:22:45;;;;;;;28.87;19.37;;;;;;;;;;5073616;28;20857;-66
2022/10/31 07:25:13;;;;;;;31.73;20.00;;;;;;;;;;5073516;28;20493;-65
2022/10/31 07:27:40;;;;;;;29.37;19.30;;;;;;;;;;5073564;28;20812;-65
2022/10/31 07:30:08;;;;;;;28.37;18.30;;;;;;;;;;5073104;28;21025;-65
2022/10/31 07:32:39;;;;;;;29.23;19.30;;;;;;;;;;5073084;28;20461;-66
2022/10/31 07:35:08;;;;;;;28.40;19.70;;;;;;;;;;5073745;28;20491;-66
2022/10/31 07:37:35;;;;;;;30.73;18.73;;;;;;;;;;5073834;28;20831;-65
2022/10/31 07:40:02;;;;;;;30.90;17.37;;;;;;;;;;5073402;28;20446;-66
2022/10/31 07:42:29;;;;;;;28.20;18.30;;;;;;;;;;5073226;28;20442;-65
2022/10/31 07:44:56;;;;;;;23.77;16.80;;;;;;;;;;5070972;28;20472;-65
2022/10/31 07:47:23;;;;;;;26.37;18.23;;;;;;;;;;5072738;28;20821;-65
2022/10/31 07:49:50;;;;;;;29.30;17.40;;;;;;;;;;5073331;28;20480;-65
2022/10/31 07:52:19;;;;;;;27.77;18.13;;;;;;;;;;5073321;28;20453;-65
2022/10/31 07:54:46;;;;;;;27.27;17.77;;;;;;;;;;5072539;28;20911;-64
2022/10/31 07:57:13;;;;;;;27.50;17.80;;;;;;;;;;5071368;28;20458;-64
2022/10/31 07:59:40;;;;;;;23.10;16.50;;;;;;;;;;5072215;28;20443;-64
2022/10/31 08:02:08;;;;;;;26.93;16.57;;;;;;;;;;5073502;28;20445;-65
2022/10/31 08:04:36;;;;;;;23.97;16.90;;;;;;;;;;5080462;28;20469;-65
2022/10/31 08:07:03;;;;;;;23.60;16.30;;;;;;;;;;5076874;28;20449;-64
2022/10/31 08:09:31;;;;;;;29.40;16.67;;;;;;;;;;5078965;28;20481;-65
2022/10/31 08:11:58;;;;;;;20.90;16.83;;;;;;;;;;5079232;28;20466;-65
2022/10/31 08:14:25;;;;;;;26.23;16.17;;;;;;;;;;5076980;28;20577;-64
2022/10/31 08:16:53;;;;;;;21.83;15.70;;;;;;;;;;5074586;28;20453;-66
2022/10/31 08:19:20;;;;;;;21.13;14.67;;;;;;;;;;5074468;28;20450;-66
2022/10/31 08:21:47;;;;;;;22.90;15.47;;;;;;;;;;5073322;28;20455;-64
2022/10/31 08:24:15;;;;;;;22.00;15.60;;;;;;;;;;5072152;28;20485;-64
2022/10/31 08:26:43;;;;;;;27.80;15.87;;;;;;;;;;5071863;28;20447;-64
2022/10/31 08:29:10;;;;;;;24.00;15.93;;;;;;;;;;5071245;28;20930;-65
2022/10/31 08:31:37;;;;;;;26.63;15.50;;;;;;;;;;5072275;28;20488;-62
2022/10/31 08:34:04;;;;;;;21.77;15.07;;;;;;;;;;5072988;28;20474;-65
2022/10/31 08:36:31;;;;;;;26.10;15.40;;;;;;;;;;5072956;28;20450;-65
2022/10/31 08:38:58;;;;;;;21.20;16.30;;;;;;;;;;5072561;28;20443;-65
2022/10/31 08:41:25;;;;;;;27.37;15.83;;;;;;;;;;5072368;28;20447;-65
2022/10/31 08:43:54;;;;;;;25.33;17.03;;;;;;;;;;5072165;28;20574;-65
2022/10/31 08:46:21;;;;;;;22.50;16.03;;;;;;;;;;5072387;28;20438;-64
2022/10/31 08:48:49;;;;;;;25.60;15.87;;;;;;;;;;5078363;28;20453;-64
2022/10/31 08:51:16;;;;;;;22.60;15.67;;;;;;;;;;5078630;28;20478;-65
2022/10/31 08:53:43;;;;;;;22.80;17.20;;;;;;;;;;5081944;28;20465;-65
2022/10/31 08:56:10;;;;;;;22.23;16.50;;;;;;;;;;5077681;28;20452;-64
2022/10/31 08:58:37;;;;;;;24.50;16.77;;;;;;;;;;5075804;28;20447;-65
2022/10/31 09:01:06;;;;;;;23.57;16.67;;;;;;;;;;5076356;28;20446;-65
2022/10/31 09:03:33;;;;;;;24.73;16.57;;;;;;;;;;5076082;28;20479;-65
2022/10/31 09:06:01;;;;;;;22.47;15.17;;;;;;;;;;5076234;28;20444;-65
2022/10/31 09:08:30;;;;;;;20.57;15.63;;;;;;;;;;5076077;28;20454;-66
2022/10/31 09:10:57;;;;;;;22.10;16.33;;;;;;;;;;5075115;28;20474;-65
2022/10/31 09:13:25;;;;;;;23.10;16.23;;;;;;;;;;5075423;28;20500;-65
2022/10/31 09:15:52;;;;;;;23.80;15.70;;;;;;;;;;5075468;28;20445;-66
2022/10/31 09:18:21;;;;;;;23.53;16.20;;;;;;;;;;5076432;28;20468;-66
2022/10/31 09:20:48;;;;;;;20.13;14.50;;;;;;;;;;5077401;28;20451;-65
2022/10/31 09:23:16;;;;;;;19.70;15.43;;;;;;;;;;5075510;28;20444;-64
2022/10/31 09:25:43;;;;;;;28.63;15.57;;;;;;;;;;5075010;28;20432;-65
2022/10/31 09:28:12;;;;;;;22.77;13.50;;;;;;;;;;5075222;28;20445;-64
2022/10/31 09:30:39;;;;;;;23.40;14.20;;;;;;;;;;5075139;28;20831;-64
2022/10/31 09:33:07;;;;;;;24.90;14.67;;;;;;;;;;5074754;28;20456;-65
2022/10/31 09:35:36;;;;;;;20.60;14.70;;;;;;;;;;5075121;28;20445;-65
2022/10/31 09:38:04;;;;;;;25.73;14.70;;;;;;;;;;5075105;28;20448;-65
2022/10/31 09:40:33;;;;;;;20.70;15.20;;;;;;;;;;5074969;28;20441;-65
2022/10/31 09:43:05;;;;;;;20.50;13.03;;;;;;;;;;5074949;28;20816;-65
2022/10/31 09:45:34;;;;;;;19.83;13.20;;;;;;;;;;5075139;28;20455;-65
2022/10/31 09:48:07;;;;;;;19.20;13.33;;;;;;;;;;5075487;28;20460;-65
2022/10/31 09:50:39;;;;;;;23.90;14.37;;;;;;;;;;5074927;28;20995;-65
2022/10/31 09:53:12;;;;;;;27.10;14.97;;;;;;;;;;5075284;28;20431;-66
2022/10/31 09:55:41;;;;;;;22.60;13.70;;;;;;;;;;5075675;28;20438;-65
2022/10/31 09:58:11;;;;;;;24.57;13.40;;;;;;;;;;5075030;28;20450;-66
2022/10/31 10:00:38;;;;;;;19.60;12.87;;;;;;;;;;5075250;28;20437;-67
2022/10/31 10:03:11;;;;;;;22.27;13.63;;;;;;;;;;5075241;28;20449;-66
2022/10/31 10:05:46;;;;;;;23.43;13.37;;;;;;;;;;5075260;28;20433;-65
2022/10/31 10:08:17;;;;;;;21.10;13.43;;;;;;;;;;5074487;28;20444;-66
2022/10/31 10:10:50;;;;;;;28.53;13.37;;;;;;;;;;5074956;28;20476;-65
2022/10/31 10:13:37;;;;;;;20.63;14.33;;;;;;;;;;5074445;28;20488;-65
2022/10/31 10:16:10;;;;;;;18.37;12.50;;;;;;;;;;5074561;28;20430;-65
2022/10/31 10:18:42;;;;;;;18.60;12.63;;;;;;;;;;5074275;28;20433;-63
2022/10/31 10:21:16;;;;;;;25.57;13.73;;;;;;;;;;5074327;28;20934;-65
2022/10/31 10:26:16;;;;;;;19.70;13.80;;;;;;;;;;5094463;22;20520;-66
2022/10/31 10:28:45;;;;;;;15.37;11.37;;;;;;;;;;5078152;28;20428;-65
2022/10/31 10:31:15;;;;;;;18.00;12.03;;;;;;;;;;5077602;28;20847;-65
2022/10/31 10:33:44;;;;;;;16.00;10.23;;;;;;;;;;5076443;28;20446;-64
2022/10/31 10:36:15;;;;;;;13.67;10.20;;;;;;;;;;5056569;28;20530;-65
2022/10/31 10:38:49;;;;;;;13.63;11.17;;;;;;;;;;5057154;28;20877;-65
2022/10/31 10:41:18;;;;;;;16.93;10.20;;;;;;;;;;5056987;28;20427;-65
2022/10/31 10:43:45;;;;;;;15.87;10.93;;;;;;;;;;5056903;28;20456;-67
2022/10/31 10:49:09;;;;;;;17.80;10.30;;;;;;;;;;5058828;28;20814;-65
2022/10/31 10:51:40;;;;;;;14.50;9.07;;;;;;;;;;5057173;28;20982;-66
2022/10/31 10:54:25;;;;;;;15.47;8.40;;;;;;;;;;5056873;28;20564;-66
2022/10/31 10:56:58;;;;;;;18.90;8.90;;;;;;;;;;5045263;28;20453;-66
2022/10/31 10:59:25;;;;;;;14.80;8.90;;;;;;;;;;5057929;28;20434;-66
2022/10/31 11:01:53;;;;;;;14.87;9.60;;;;;;;;;;5057956;28;20448;-68
2022/10/31 11:04:28;;;;;;;13.67;9.50;;;;;;;;;;5057531;28;20464;-66
2022/10/31 11:07:00;;;;;;;18.40;9.77;;;;;;;;;;5057526;28;20456;-65
2022/10/31 11:09:27;;;;;;;16.53;10.67;;;;;;;;;;5057585;28;20463;-65
2022/10/31 11:11:55;;;;;;;17.30;10.50;;;;;;;;;;5057286;28;20491;-66
2022/10/31 11:14:22;;;;;;;14.97;10.20;;;;;;;;;;5057585;28;20550;-65
2022/10/31 11:16:51;;;;;;;18.03;10.10;;;;;;;;;;5055837;28;20533;-65
2022/10/31 11:19:19;;;;;;;20.77;11.00;;;;;;;;;;5055421;28;20447;-66
2022/10/31 11:21:46;;;;;;;18.30;11.33;;;;;;;;;;5054954;28;20814;-65
2022/10/31 11:24:19;;;;;;;19.07;11.10;;;;;;;;;;5054558;28;20482;-66
2022/10/31 11:26:47;;;;;;;16.40;10.07;;;;;;;;;;5055591;28;20973;-64
2022/10/31 11:29:15;;;;;;;13.83;8.67;;;;;;;;;;5054829;28;20452;-65
2022/10/31 11:31:43;;;;;;;17.30;10.50;;;;;;;;;;5055512;28;20528;-66
2022/10/31 11:34:15;;;;;;;12.00;7.00;;;;;;;;;;5055176;28;20483;-64
2022/10/31 11:36:44;;;;;;;13.27;8.20;;;;;;;;;;5055358;28;20797;-65
2022/10/31 11:39:16;;;;;;;10.43;6.70;;;;;;;;;;5055352;28;20535;-65
2022/10/31 11:41:45;;;;;;;12.30;7.40;;;;;;;;;;5055005;28;20429;-64
2022/10/31 11:44:14;;;;;;;12.83;7.30;;;;;;;;;;5054546;28;20558;-67
2022/10/31 11:46:43;;;;;;;13.10;7.90;;;;;;;;;;5054497;28;20939;-65
2022/10/31 11:49:14;;;;;;;13.73;6.97;;;;;;;;;;5054356;28;21026;-65
2022/10/31 11:51:41;;;;;;;10.77;6.60;;;;;;;;;;5054899;28;20468;-65
2022/10/31 11:54:17;;;;;;;15.03;7.47;;;;;;;;;;5053917;28;20466;-65
2022/10/31 11:56:46;;;;;;;13.53;6.97;;;;;;;;;;5054933;28;20437;-64
2022/10/31 11:59:22;;;;;;;10.93;7.40;;;;;;;;;;5054502;28;20448;-64
2022/10/31 12:01:50;;;;;;;12.43;7.90;;;;;;;;;;5053888;28;20928;-66
2022/10/31 12:04:17;;;;;;;10.83;7.43;;;;;;;;;;5053774;28;20475;-66
2022/10/31 12:06:45;;;;;;;15.23;9.30;;;;;;;;;;5055084;28;20440;-66
2022/10/31 12:09:20;;;;;;;10.70;7.43;;;;;;;;;;5055296;28;20444;-66
2022/10/31 12:11:54;;;;;;;12.43;7.60;;;;;;;;;;5053777;28;20468;-66
2022/10/31 12:14:27;;;;;;;11.10;8.40;;;;;;;;;;5054293;28;20479;-65
2022/10/31 12:16:57;;;;;;;14.40;7.43;;;;;;;;;;5054236;28;20459;-65
2022/10/31 12:19:28;;;;;;;12.63;7.73;;;;;;;;;;5054414;28;20959;-64
2022/10/31 12:22:08;;;;;;;16.10;8.40;;;;;;;;;;5053920;28;20429;-65
2022/10/31 12:24:40;;;;;;;15.37;8.10;;;;;;;;;;5053709;28;20532;-64
2022/10/31 12:27:13;;;;;;;10.83;8.33;;;;;;;;;;5055790;28;20444;-64
2022/10/31 12:29:55;;;;;;;13.20;7.47;;;;;;;;;;5053682;28;20917;-66
2022/10/31 12:32:30;;;;;;;13.43;7.90;;;;;;;;;;5057045;28;20469;-65
2022/10/31 12:35:05;;;;;;;12.07;8.10;;;;;;;;;;5058231;28;20471;-65
2022/10/31 12:37:42;;;;;;;14.17;8.20;;;;;;;;;;5057732;28;20442;-64
2022/10/31 12:40:19;;;;;;;12.70;7.57;;;;;;;;;;5057731;28;20431;-66
2022/10/31 12:42:54;;;;;;;15.87;8.30;;;;;;;;;;5057761;28;20433;-65
2022/10/31 12:45:35;;;;;;;13.77;7.37;;;;;;;;;;5057306;28;20459;-64
2022/10/31 12:48:08;;;;;;;14.67;8.40;;;;;;;;;;5057274;28;20434;-66
2022/10/31 12:50:52;;;;;;;12.30;8.10;;;;;;;;;;5058201;28;20435;-66
2022/10/31 12:53:24;;;;;;;11.87;8.13;;;;;;;;;;5059788;28;20489;-65
2022/10/31 12:55:58;;;;;;;12.83;8.30;;;;;;;;;;5058588;28;20470;-64
2022/10/31 12:58:29;;;;;;;14.40;9.70;;;;;;;;;;5058019;28;20452;-65
2022/10/31 13:01:03;;;;;;;13.70;9.83;;;;;;;;;;5057590;28;20444;-63
2022/10/31 13:03:34;;;;;;;18.93;9.43;;;;;;;;;;5057649;28;20431;-64
2022/10/31 13:06:04;;;;;;;15.93;11.67;;;;;;;;;;5057486;28;20459;-64
2022/10/31 13:08:35;;;;;;;16.53;10.50;;;;;;;;;;5057260;28;20429;-64
2022/10/31 13:11:07;;;;;;;19.27;10.93;;;;;;;;;;5057624;28;20958;-63
2022/10/31 13:13:37;;;;;;;22.20;11.03;;;;;;;;;;5057538;28;20428;-62
2022/10/31 13:16:06;;;;;;;22.47;11.90;;;;;;;;;;5058184;28;20462;-64
2022/10/31 13:18:36;;;;;;;17.97;10.97;;;;;;;;;;5056918;28;20503;-62
2022/10/31 13:21:05;;;;;;;18.20;10.57;;;;;;;;;;5057944;28;20469;-65
2022/10/31 13:23:33;;;;;;;13.30;10.03;;;;;;;;;;5057603;28;20456;-65
2022/10/31 13:26:03;;;;;;;16.83;11.00;;;;;;;;;;5056194;28;21023;-65
2022/10/31 13:28:32;;;;;;;15.20;10.37;;;;;;;;;;5056971;28;20459;-63
2022/10/31 13:31:01;;;;;;;17.97;10.90;;;;;;;;;;5056793;28;20450;-64
2022/10/31 13:33:31;;;;;;;17.77;11.17;;;;;;;;;;5056832;28;20453;-64
2022/10/31 13:36:05;;;;;;;14.77;10.47;;;;;;;;;;5056681;28;20501;-64
2022/10/31 13:38:35;;;;;;;21.93;10.87;;;;;;;;;;5057744;28;20441;-65
2022/10/31 13:41:04;;;;;;;14.90;10.00;;;;;;;;;;5056455;28;20454;-63
2022/10/31 13:43:34;;;;;;;12.93;8.37;;;;;;;;;;5057140;28;20457;-64
2022/10/31 13:46:03;;;;;;;20.60;9.70;;;;;;;;;;5057434;28;20462;-65
2022/10/31 13:48:42;;;;;;;16.73;9.93;;;;;;;;;;5057060;28;20445;-65
2022/10/31 13:51:10;;;;;;;16.87;10.70;;;;;;;;;;5057136;28;20538;-65
2022/10/31 13:53:41;;;;;;;18.77;10.03;;;;;;;;;;5057006;28;20460;-64
2022/10/31 13:56:20;;;;;;;19.73;11.23;;;;;;;;;;5056845;28;20467;-62
2022/10/31 13:59:01;;;;;;;23.87;13.27;;;;;;;;;;5056736;28;20448;-63
2022/10/31 14:01:30;;;;;;;25.40;13.97;;;;;;;;;;5056440;28;20435;-64
2022/10/31 14:03:59;;;;;;;20.30;13.93;;;;;;;;;;5056765;28;20833;-64
2022/10/31 14:06:36;;;;;;;24.00;14.63;;;;;;;;;;5056313;28;20442;-64
2022/10/31 14:09:03;;;;;;;23.10;15.50;;;;;;;;;;5056243;28;20448;-63
2022/10/31 14:11:31;;;;;;;19.50;15.60;;;;;;;;;;5056458;28;20492;-64
2022/10/31 14:13:59;;;;;;;23.47;16.07;;;;;;;;;;5056670;28;20445;-65
2022/10/31 14:16:27;;;;;;;23.47;15.07;;;;;;;;;;5056879;28;20442;-66
2022/10/31 14:19:01;;;;;;;23.93;16.10;;;;;;;;;;5056983;28;20451;-65
2022/10/31 14:21:29;;;;;;;23.43;14.97;;;;;;;;;;5056905;28;20432;-63
2022/10/31 14:23:57;;;;;;;27.30;15.97;;;;;;;;;;5055899;28;20446;-64
2022/10/31 14:26:34;;;;;;;23.80;16.20;;;;;;;;;;5056295;28;20427;-65
2022/10/31 14:29:03;;;;;;;24.17;16.40;;;;;;;;;;5056284;28;20447;-63
2022/10/31 14:31:36;;;;;;;25.37;16.93;;;;;;;;;;5056405;28;20488;-65
2022/10/31 14:34:07;;;;;;;29.07;17.40;;;;;;;;;;5056066;28;20935;-64
2022/10/31 14:36:41;;;;;;;27.37;19.37;;;;;;;;;;5056442;28;20440;-66
2022/10/31 14:39:11;;;;;;;31.57;19.07;;;;;;;;;;5056481;28;20451;-63
2022/10/31 14:41:49;;;;;;;28.90;18.90;;;;;;;;;;5055624;28;20438;-62